Stations météo

réclame
Mon MeteoGroup
Plasencia, Espagne (8252): Température de l'air & dewpoint: 10.12.2017 00:00:00 - 16.12.2017 00:00:00 (CET)Plasencia, Espagne (8252): Vitesse du vent & gusts: 10.12.2017 00:00:00 - 16.12.2017 00:00:00 (CET)Plasencia, Espagne (8252): Direction du vent: 10.12.2017 00:00:00 - 16.12.2017 00:00:00 (CET)Plasencia, Espagne (8252): Quantités de précipitations: 10.12.2017 00:00:00 - 16.12.2017 00:00:00 (CET)
Date & Time tt [°C] td [°C] ff [km/h] ff [knt] fx [km/h] fx [knt] dd rr [mm]
16.12.2017 00:00:00 - - - - - - - -
15.12.2017 23:00:00 7,8 0,2 6 3 33 18 N 0,0
15.12.2017 22:00:00 7,6 1,3 14 8 30 16 NNE 0,0
15.12.2017 21:00:00 8,3 1,9 9 5 32 17 N 0,0
15.12.2017 20:00:00 8,6 1,3 5 3 23 13 NNE 0,0
15.12.2017 19:00:00 9,6 1,5 10 5 31 17 NE -
15.12.2017 18:00:00 10,2 3,0 5 3 28 15 NW 0,1
15.12.2017 17:00:00 11,2 3,8 11 6 30 16 N 0,0
15.12.2017 16:00:00 11,5 4,6 9 5 30 16 N 0,0
15.12.2017 15:00:00 12,1 10,6 4 2 18 10 NNW 0,0
15.12.2017 14:00:00 11,7 11,2 6 3 14 8 W 0,0
15.12.2017 13:00:00 11,0 10,6 5 3 20 11 N -
15.12.2017 12:00:00 10,4 10,3 5 3 14 8 WNW 0,2
15.12.2017 11:00:00 10,3 10,2 4 2 11 6 W 1,0
15.12.2017 10:00:00 9,9 9,6 3 1 9 5 WNW 2,1
15.12.2017 09:00:00 9,7 9,4 3 2 9 5 W 1,9
15.12.2017 08:00:00 9,7 9,3 3 2 13 7 WNW 0,4
15.12.2017 07:00:00 9,8 9,3 5 3 18 10 WNW -
15.12.2017 06:00:00 9,9 9,4 5 3 16 9 W 0,0
15.12.2017 05:00:00 10,1 9,7 4 2 23 12 WNW 0,0
15.12.2017 04:00:00 10,2 9,8 8 4 20 11 W 0,0
15.12.2017 03:00:00 10,2 10,0 4 2 18 10 WNW 0,0
15.12.2017 02:00:00 10,7 10,5 8 4 21 11 W 0,0
15.12.2017 01:00:00 11,1 11,0 7 4 19 10 W -
15.12.2017 00:00:00 11,0 10,9 7 4 20 11 W 0,0
14.12.2017 23:00:00 11,3 11,1 6 3 14 7 W 0,1
14.12.2017 22:00:00 11,5 11,3 5 3 14 8 W 0,0
14.12.2017 21:00:00 11,3 11,1 5 3 13 7 W 0,0
14.12.2017 20:00:00 11,1 11,0 2 1 10 6 W 0,0
14.12.2017 19:00:00 11,2 11,0 2 1 16 9 W -
14.12.2017 18:00:00 11,3 11,1 5 3 18 10 NW 0,0
14.12.2017 17:00:00 11,2 11,0 4 2 11 6 WNW 0,0
14.12.2017 16:00:00 11,0 10,9 4 2 10 5 W 0,0
14.12.2017 15:00:00 11,1 11,0 2 1 9 5 WNW 0,1
14.12.2017 14:00:00 10,7 10,5 2 1 8 4 WNW 0,0
14.12.2017 13:00:00 10,3 10,2 0 0 3 2 N -
14.12.2017 12:00:00 9,8 9,7 1 0 7 4 SSE 0,0
14.12.2017 11:00:00 9,3 9,2 1 1 6 4 WNW 0,0
14.12.2017 10:00:00 8,7 8,5 1 0 5 3 W 0,0
14.12.2017 09:00:00 8,0 7,8 4 2 9 5 WSW 0,0
14.12.2017 08:00:00 7,8 7,6 0 0 5 3 N 0,0
14.12.2017 07:00:00 7,6 7,1 2 1 14 8 SW -
14.12.2017 06:00:00 7,5 6,8 4 2 13 7 WNW 0,0
14.12.2017 05:00:00 7,7 6,5 5 3 14 8 NW 0,0
14.12.2017 04:00:00 7,5 6,2 4 2 14 7 W 0,0
14.12.2017 03:00:00 7,6 6,2 5 3 17 9 W 0,0
14.12.2017 02:00:00 8,0 6,4 4 2 13 7 WNW 0,0
14.12.2017 01:00:00 7,7 6,1 5 3 14 8 NW -
14.12.2017 00:00:00 7,6 6,1 4 2 11 6 WNW 0,0
13.12.2017 23:00:00 7,8 6,1 4 2 14 8 WNW 0,0
13.12.2017 22:00:00 8,0 5,9 5 3 13 7 WNW 0,0
13.12.2017 21:00:00 8,2 5,8 4 2 12 7 WNW 0,0
13.12.2017 20:00:00 8,4 5,6 5 3 11 6 WNW 0,0
13.12.2017 19:00:00 8,5 5,5 4 2 16 8 W -
13.12.2017 18:00:00 9,1 5,1 5 3 18 10 WNW 0,0
13.12.2017 17:00:00 10,1 4,3 6 3 21 11 W 0,0
13.12.2017 16:00:00 10,9 3,6 5 3 15 8 WNW 0,0
13.12.2017 15:00:00 11,1 3,4 4 2 18 10 WNW 0,0
13.12.2017 14:00:00 11,0 3,2 5 3 14 8 W 0,0
13.12.2017 13:00:00 10,2 3,8 3 2 11 6 WNW -
13.12.2017 12:00:00 7,3 2,7 2 1 11 6 E 0,0
13.12.2017 11:00:00 4,5 1,5 5 3 10 5 E 0,0
13.12.2017 10:00:00 3,4 1,5 1 1 5 3 E 0,0
13.12.2017 09:00:00 1,9 -0,5 0 0 7 4 SSW 0,0
13.12.2017 08:00:00 2,7 0,2 3 2 9 5 E 0,0
13.12.2017 07:00:00 1,6 -0,3 6 4 11 6 E -
13.12.2017 06:00:00 1,8 -0,3 4 2 7 4 E 0,0
13.12.2017 05:00:00 2,1 0,0 3 2 10 5 ENE 0,0
13.12.2017 04:00:00 2,9 0,2 3 2 9 5 E 0,0
13.12.2017 03:00:00 3,2 1,1 2 1 6 3 E 0,0
13.12.2017 02:00:00 3,6 0,4 0 0 6 4 ENE 0,0
13.12.2017 01:00:00 4,0 0,0 0 0 0 0 N -
13.12.2017 00:00:00 4,6 0,4 0 0 5 3 N 0,0
12.12.2017 23:00:00 5,1 0,0 0 0 5 3 S 0,0
12.12.2017 22:00:00 6,1 -0,3 1 0 16 9 E 0,0
12.12.2017 21:00:00 8,0 0,0 6 3 21 12 N 0,0
12.12.2017 20:00:00 8,7 0,4 7 4 29 16 N 0,0
12.12.2017 19:00:00 8,8 0,6 8 4 21 12 N -
12.12.2017 18:00:00 9,6 1,1 6 3 18 10 NNW 0,0
12.12.2017 17:00:00 11,3 1,5 5 3 21 12 N 0,0
12.12.2017 16:00:00 11,2 0,9 7 4 24 13 NNW 0,0
12.12.2017 15:00:00 10,7 0,6 7 4 20 11 NNW 0,0
12.12.2017 14:00:00 10,2 1,3 5 3 31 17 NNE 0,0
12.12.2017 13:00:00 9,1 1,5 10 5 31 17 NNE -
12.12.2017 12:00:00 8,0 1,5 8 5 28 15 NNW 0,0
12.12.2017 11:00:00 4,9 0,2 1 0 10 5 WSW 0,0
12.12.2017 10:00:00 4,1 -0,7 3 2 25 14 W 0,0
12.12.2017 09:00:00 4,2 -1,2 3 1 23 12 N 0,0
12.12.2017 08:00:00 4,5 -1,2 5 3 17 9 N 0,0
12.12.2017 07:00:00 4,8 -1,4 8 4 23 12 NNE -
12.12.2017 06:00:00 5,3 -1,2 10 5 22 12 N 0,0
12.12.2017 05:00:00 5,2 -1,2 9 5 19 10 NNE 0,0
12.12.2017 04:00:00 4,9 -1,2 8 4 25 14 NNE 0,0
12.12.2017 03:00:00 4,5 -1,2 13 7 27 15 N 0,0
12.12.2017 02:00:00 5,3 -1,0 9 5 26 14 N 0,0
12.12.2017 01:00:00 5,1 -0,5 8 5 23 13 NNE -
12.12.2017 00:00:00 5,4 0,2 11 6 33 18 N 0,0
11.12.2017 23:00:00 5,6 0,0 8 5 26 14 NNE 0,0
11.12.2017 22:00:00 6,1 0,9 9 5 25 14 NNE 0,0
11.12.2017 21:00:00 6,2 2,3 2 1 32 18 W 0,0
11.12.2017 20:00:00 6,8 3,6 8 4 29 16 NNW 0,0
11.12.2017 19:00:00 6,9 4,1 5 3 27 14 NNW -
11.12.2017 18:00:00 7,3 6,2 7 4 23 13 NNW 0,0
11.12.2017 17:00:00 7,8 6,5 5 3 19 11 NW 0,0
11.12.2017 16:00:00 7,8 6,4 5 3 22 12 NW 1,2
11.12.2017 15:00:00 9,2 4,5 15 8 34 18 WSW 0,0
11.12.2017 14:00:00 10,2 4,5 12 7 30 16 WSW 0,0
11.12.2017 13:00:00 9,4 4,6 12 6 30 16 WSW -
11.12.2017 12:00:00 8,5 4,3 9 5 32 17 W 0,0
11.12.2017 11:00:00 7,0 4,5 14 7 34 18 W 0,0
11.12.2017 10:00:00 5,9 4,5 10 5 26 14 WSW 0,0
11.12.2017 09:00:00 5,9 4,5 9 5 29 16 W 0,0
11.12.2017 08:00:00 6,6 5,8 12 6 29 16 W 0,0
11.12.2017 07:00:00 7,3 6,1 12 6 31 17 W -
11.12.2017 06:00:00 7,3 5,9 14 8 31 17 W 0,0
11.12.2017 05:00:00 7,5 5,9 13 7 35 19 W 0,0
11.12.2017 04:00:00 7,7 6,8 16 9 53 28 WSW 1,1
11.12.2017 03:00:00 8,5 8,1 18 10 35 19 W 3,1
11.12.2017 02:00:00 9,3 8,5 17 9 60 33 W 6,9
11.12.2017 01:00:00 12,4 11,1 18 10 41 22 SW -
11.12.2017 00:00:00 12,1 10,9 10 5 39 21 SW 1,3
10.12.2017 23:00:00 12,0 10,5 14 8 35 19 WSW 1,0
10.12.2017 22:00:00 12,9 10,3 14 8 40 22 WSW 0,0
10.12.2017 21:00:00 12,2 10,6 11 6 37 20 SW 0,0
10.12.2017 20:00:00 12,6 9,8 9 5 30 16 SW 0,0
10.12.2017 19:00:00 12,1 10,6 15 8 38 21 WSW -
10.12.2017 18:00:00 12,1 10,9 13 7 36 19 WSW 0,2
10.12.2017 17:00:00 13,4 10,4 16 9 38 21 WSW 0,0
10.12.2017 16:00:00 12,9 11,0 19 11 46 25 WSW 0,0
10.12.2017 15:00:00 13,2 11,2 18 10 38 20 WSW 0,0
10.12.2017 14:00:00 13,0 10,5 18 10 35 19 WSW 0,0
10.12.2017 13:00:00 13,1 10,6 14 7 34 18 WSW -
10.12.2017 12:00:00 12,4 10,6 11 6 29 15 WSW 0,0
10.12.2017 11:00:00 11,8 10,5 11 6 24 13 WSW 0,0
10.12.2017 10:00:00 11,3 10,5 9 5 22 12 W 0,0
10.12.2017 09:00:00 10,8 10,3 8 5 27 14 W 0,0
10.12.2017 08:00:00 11,0 10,4 11 6 31 17 W 0,0
10.12.2017 07:00:00 11,0 10,5 16 9 35 19 WSW -
10.12.2017 06:00:00 10,5 10,0 5 3 18 10 W 0,0
10.12.2017 05:00:00 10,7 10,0 8 4 16 9 WSW 0,0
10.12.2017 04:00:00 10,8 10,2 5 3 17 9 W 0,0
10.12.2017 03:00:00 11,0 10,0 5 3 18 10 W 0,0
10.12.2017 02:00:00 11,5 9,8 5 3 16 8 W 0,0
10.12.2017 01:00:00 12,1 9,4 9 5 19 11 W -
10.12.2017 00:00:00 12,1 8,9 5 3 13 7 W 0,0

tt = Température de l'air
td = dewpoint
ff = Vitesse du vent
fx = gusts
dd = Direction du vent
rr = Quantités de précipitations

stations d'obs. à proximité